sensor_id;sensor_type;location;lat;lon;timestamp;pressure;altitude;pressure_sealevel;temperature;humidity
60852;BME280;48553;50.766;2.900;2022-11-11T00:00:45;102164.81;;;11.46;83.87
60852;BME280;48553;50.766;2.900;2022-11-11T00:03:45;102157.22;;;11.43;83.92
60852;BME280;48553;50.766;2.900;2022-11-11T00:06:46;102154.47;;;11.43;83.77
60852;BME280;48553;50.766;2.900;2022-11-11T00:09:46;102159.16;;;11.43;83.77
60852;BME280;48553;50.766;2.900;2022-11-11T00:12:47;102163.00;;;11.42;83.67
60852;BME280;48553;50.766;2.900;2022-11-11T00:15:47;102161.09;;;11.42;83.80
60852;BME280;48553;50.766;2.900;2022-11-11T00:18:48;102170.13;;;11.43;83.67
60852;BME280;48553;50.766;2.900;2022-11-11T00:22:27;102156.69;;;11.41;83.67
60852;BME280;48553;50.766;2.900;2022-11-11T00:25:46;102158.44;;;11.37;83.69
60852;BME280;48553;50.766;2.900;2022-11-11T00:28:50;102164.44;;;11.39;83.90
60852;BME280;48553;50.766;2.900;2022-11-11T00:31:50;102155.69;;;11.37;83.88
60852;BME280;48553;50.766;2.900;2022-11-11T00:35:09;102151.84;;;11.38;83.82
60852;BME280;48553;50.766;2.900;2022-11-11T00:38:29;102156.53;;;11.38;83.83
60852;BME280;48553;50.766;2.900;2022-11-11T00:41:44;102147.44;;;11.37;83.89
60852;BME280;48553;50.766;2.900;2022-11-11T00:44:44;102148.59;;;11.36;83.87
60852;BME280;48553;50.766;2.900;2022-11-11T00:47:45;102143.69;;;11.33;83.87
60852;BME280;48553;50.766;2.900;2022-11-11T00:51:03;102143.50;;;11.29;84.03
60852;BME280;48553;50.766;2.900;2022-11-11T00:54:04;102145.13;;;11.31;84.00
60852;BME280;48553;50.766;2.900;2022-11-11T00:57:04;102144.53;;;11.34;83.90
60852;BME280;48553;50.766;2.900;2022-11-11T01:00:05;102142.06;;;11.32;83.99
60852;BME280;48553;50.766;2.900;2022-11-11T01:03:06;102147.06;;;11.30;84.08
60852;BME280;48553;50.766;2.900;2022-11-11T01:06:06;102147.56;;;11.32;83.96
60852;BME280;48553;50.766;2.900;2022-11-11T01:09:08;102143.00;;;11.27;83.90
60852;BME280;48553;50.766;2.900;2022-11-11T01:12:08;102148.47;;;11.27;83.73
60852;BME280;48553;50.766;2.900;2022-11-11T01:15:09;102146.88;;;11.26;83.79
60852;BME280;48553;50.766;2.900;2022-11-11T01:18:15;102150.72;;;11.25;83.75
60852;BME280;48553;50.766;2.900;2022-11-11T01:21:21;102141.97;;;11.23;83.94
60852;BME280;48553;50.766;2.900;2022-11-11T01:24:22;102131.81;;;11.24;83.70
60852;BME280;48553;50.766;2.900;2022-11-11T01:27:22;102140.47;;;11.17;83.77
60852;BME280;48553;50.766;2.900;2022-11-11T01:30:23;102143.69;;;11.19;83.59
60852;BME280;48553;50.766;2.900;2022-11-11T01:33:23;102138.53;;;11.18;83.54
60852;BME280;48553;50.766;2.900;2022-11-11T01:36:25;102150.81;;;11.20;83.53
60852;BME280;48553;50.766;2.900;2022-11-11T01:39:26;102150.09;;;11.15;83.45
60852;BME280;48553;50.766;2.900;2022-11-11T01:42:26;102163.81;;;11.15;83.53
60852;BME280;48553;50.766;2.900;2022-11-11T01:48:49;102156.72;;;11.14;83.57
60852;BME280;48553;50.766;2.900;2022-11-11T01:55:21;102162.81;;;11.11;83.58
60852;BME280;48553;50.766;2.900;2022-11-11T01:58:22;102171.53;;;11.13;83.52
60852;BME280;48553;50.766;2.900;2022-11-11T02:01:23;102171.34;;;11.09;83.52
60852;BME280;48553;50.766;2.900;2022-11-11T02:04:24;102166.66;;;11.10;83.53
60852;BME280;48553;50.766;2.900;2022-11-11T02:07:43;102159.56;;;11.08;83.37
60852;BME280;48553;50.766;2.900;2022-11-11T02:10:45;102161.00;;;11.06;83.67
60852;BME280;48553;50.766;2.900;2022-11-11T02:13:46;102150.84;;;11.06;83.63
60852;BME280;48553;50.766;2.900;2022-11-11T02:17:07;102151.63;;;11.07;83.64
60852;BME280;48553;50.766;2.900;2022-11-11T02:20:09;102134.38;;;11.06;83.47
60852;BME280;48553;50.766;2.900;2022-11-11T02:23:37;102123.19;;;11.03;83.67
60852;BME280;48553;50.766;2.900;2022-11-11T02:26:38;102122.06;;;11.04;83.49
60852;BME280;48553;50.766;2.900;2022-11-11T02:29:40;102109.16;;;11.04;83.54
60852;BME280;48553;50.766;2.900;2022-11-11T02:32:47;102114.44;;;11.01;83.55
60852;BME280;48553;50.766;2.900;2022-11-11T02:35:51;102104.59;;;11.00;83.48
60852;BME280;48553;50.766;2.900;2022-11-11T02:38:57;102105.19;;;10.97;83.47
60852;BME280;48553;50.766;2.900;2022-11-11T02:41:58;102113.63;;;11.00;83.27
60852;BME280;48553;50.766;2.900;2022-11-11T02:44:58;102104.38;;;10.96;83.46
60852;BME280;48553;50.766;2.900;2022-11-11T02:47:58;102104.38;;;10.96;83.49
60852;BME280;48553;50.766;2.900;2022-11-11T02:50:59;102091.28;;;10.93;83.38
60852;BME280;48553;50.766;2.900;2022-11-11T02:53:59;102092.91;;;10.94;83.17
60852;BME280;48553;50.766;2.900;2022-11-11T02:57:00;102093.50;;;10.91;83.31
60852;BME280;48553;50.766;2.900;2022-11-11T03:00:06;102108.84;;;10.92;83.25
60852;BME280;48553;50.766;2.900;2022-11-11T03:03:08;102103.34;;;10.92;83.05
60852;BME280;48553;50.766;2.900;2022-11-11T03:06:09;102113.84;;;10.90;83.05
60852;BME280;48553;50.766;2.900;2022-11-11T03:09:09;102116.88;;;10.89;83.20
60852;BME280;48553;50.766;2.900;2022-11-11T03:12:09;102124.59;;;10.86;83.16
60852;BME280;48553;50.766;2.900;2022-11-11T03:15:10;102127.63;;;10.85;83.14
60852;BME280;48553;50.766;2.900;2022-11-11T03:18:10;102135.56;;;10.86;83.01
60852;BME280;48553;50.766;2.900;2022-11-11T03:21:11;102129.56;;;10.84;83.09
60852;BME280;48553;50.766;2.900;2022-11-11T03:24:11;102138.59;;;10.85;82.94
60852;BME280;48553;50.766;2.900;2022-11-11T03:27:12;102133.97;;;10.85;82.93
60852;BME280;48553;50.766;2.900;2022-11-11T03:30:12;102132.94;;;10.81;82.99
60852;BME280;48553;50.766;2.900;2022-11-11T03:33:13;102139.84;;;10.79;82.99
60852;BME280;48553;50.766;2.900;2022-11-11T03:36:14;102129.69;;;10.79;83.09
60852;BME280;48553;50.766;2.900;2022-11-11T03:39:14;102134.03;;;10.80;82.92
60852;BME280;48553;50.766;2.900;2022-11-11T03:42:15;102128.03;;;10.78;83.17
60852;BME280;48553;50.766;2.900;2022-11-11T03:45:15;102119.81;;;10.78;83.03
60852;BME280;48553;50.766;2.900;2022-11-11T03:48:16;102125.09;;;10.75;83.16
60852;BME280;48553;50.766;2.900;2022-11-11T03:51:16;102117.69;;;10.75;83.17
60852;BME280;48553;50.766;2.900;2022-11-11T03:54:16;102127.53;;;10.76;83.03
60852;BME280;48553;50.766;2.900;2022-11-11T03:57:17;102129.78;;;10.74;83.11
60852;BME280;48553;50.766;2.900;2022-11-11T04:00:29;102131.69;;;10.74;83.10
60852;BME280;48553;50.766;2.900;2022-11-11T04:03:30;102126.53;;;10.72;82.99
60852;BME280;48553;50.766;2.900;2022-11-11T04:06:49;102127.63;;;10.71;83.02
60852;BME280;48553;50.766;2.900;2022-11-11T04:10:08;102135.03;;;10.71;83.07
60852;BME280;48553;50.766;2.900;2022-11-11T04:13:23;102149.88;;;10.70;83.31
60852;BME280;48553;50.766;2.900;2022-11-11T04:16:42;102148.53;;;10.67;83.18
60852;BME280;48553;50.766;2.900;2022-11-11T04:19:43;102145.50;;;10.69;83.02
60852;BME280;48553;50.766;2.900;2022-11-11T04:23:02;102154.00;;;10.67;83.12
60852;BME280;48553;50.766;2.900;2022-11-11T04:26:02;102150.19;;;10.68;82.85
60852;BME280;48553;50.766;2.900;2022-11-11T04:29:03;102139.50;;;10.66;83.17
60852;BME280;48553;50.766;2.900;2022-11-11T04:32:23;102146.13;;;10.65;83.04
60852;BME280;48553;50.766;2.900;2022-11-11T04:35:38;102145.28;;;10.65;83.17
60852;BME280;48553;50.766;2.900;2022-11-11T04:38:38;102146.41;;;10.64;82.89
60852;BME280;48553;50.766;2.900;2022-11-11T04:41:57;102153.50;;;10.65;83.03
60852;BME280;48553;50.766;2.900;2022-11-11T04:44:58;102149.75;;;10.61;83.21
60852;BME280;48553;50.766;2.900;2022-11-11T04:48:18;102158.78;;;10.61;83.19
60852;BME280;48553;50.766;2.900;2022-11-11T04:51:20;102164.28;;;10.61;83.10
60852;BME280;48553;50.766;2.900;2022-11-11T04:54:40;102169.75;;;10.61;83.11
60852;BME280;48553;50.766;2.900;2022-11-11T04:58:00;102176.94;;;10.57;83.40
60852;BME280;48553;50.766;2.900;2022-11-11T05:01:01;102170.84;;;10.60;83.25
60852;BME280;48553;50.766;2.900;2022-11-11T05:04:02;102171.19;;;10.59;83.13
60852;BME280;48553;50.766;2.900;2022-11-11T05:07:02;102169.84;;;10.56;83.26
60852;BME280;48553;50.766;2.900;2022-11-11T05:10:22;102175.00;;;10.58;83.29
60852;BME280;48553;50.766;2.900;2022-11-11T05:13:22;102187.91;;;10.57;83.32
60852;BME280;48553;50.766;2.900;2022-11-11T05:16:49;102178.88;;;10.57;83.35
60852;BME280;48553;50.766;2.900;2022-11-11T05:20:09;102175.00;;;10.58;83.33
60852;BME280;48553;50.766;2.900;2022-11-11T05:23:28;102181.09;;;10.55;83.32
60852;BME280;48553;50.766;2.900;2022-11-11T05:26:48;102177.84;;;10.53;83.47
60852;BME280;48553;50.766;2.900;2022-11-11T05:29:48;102186.06;;;10.53;83.46
60852;BME280;48553;50.766;2.900;2022-11-11T05:32:49;102181.09;;;10.55;83.41
60852;BME280;48553;50.766;2.900;2022-11-11T05:35:50;102183.34;;;10.53;83.56
60852;BME280;48553;50.766;2.900;2022-11-11T05:38:50;102177.03;;;10.52;83.66
60852;BME280;48553;50.766;2.900;2022-11-11T05:41:51;102180.31;;;10.54;83.43
60852;BME280;48553;50.766;2.900;2022-11-11T05:44:51;102184.13;;;10.53;83.64
60852;BME280;48553;50.766;2.900;2022-11-11T05:47:51;102180.59;;;10.53;83.28
60852;BME280;48553;50.766;2.900;2022-11-11T05:50:52;102182.22;;;10.54;83.61
60852;BME280;48553;50.766;2.900;2022-11-11T05:53:53;102195.09;;;10.53;83.46
60852;BME280;48553;50.766;2.900;2022-11-11T05:56:53;102194.91;;;10.50;83.59
60852;BME280;48553;50.766;2.900;2022-11-11T05:59:54;102198.16;;;10.52;83.67
60852;BME280;48553;50.766;2.900;2022-11-11T06:03:01;102202.53;;;10.53;83.54
60852;BME280;48553;50.766;2.900;2022-11-11T06:06:02;102207.50;;;10.51;83.60
60852;BME280;48553;50.766;2.900;2022-11-11T06:09:03;102202.00;;;10.51;83.70
60852;BME280;48553;50.766;2.900;2022-11-11T06:12:03;102200.38;;;10.50;83.52
60852;BME280;48553;50.766;2.900;2022-11-11T06:15:04;102208.69;;;10.44;83.81
60852;BME280;48553;50.766;2.900;2022-11-11T06:18:05;102205.34;;;10.48;83.77
60852;BME280;48553;50.766;2.900;2022-11-11T06:21:06;102202.09;;;10.45;83.76
60852;BME280;48553;50.766;2.900;2022-11-11T06:24:06;102209.19;;;10.47;83.85
60852;BME280;48553;50.766;2.900;2022-11-11T06:27:07;102206.16;;;10.48;83.60
60852;BME280;48553;50.766;2.900;2022-11-11T06:30:07;102221.81;;;10.48;83.61
60852;BME280;48553;50.766;2.900;2022-11-11T06:33:08;102222.59;;;10.48;83.58
60852;BME280;48553;50.766;2.900;2022-11-11T06:36:11;102219.63;;;10.44;83.66
60852;BME280;48553;50.766;2.900;2022-11-11T06:39:12;102227.56;;;10.46;83.64
60852;BME280;48553;50.766;2.900;2022-11-11T06:42:13;102230.91;;;10.43;83.83
60852;BME280;48553;50.766;2.900;2022-11-11T06:45:13;102248.69;;;10.45;83.81
60852;BME280;48553;50.766;2.900;2022-11-11T06:48:13;102238.34;;;10.42;83.87
60852;BME280;48553;50.766;2.900;2022-11-11T06:51:14;102236.91;;;10.45;83.80
60852;BME280;48553;50.766;2.900;2022-11-11T06:54:14;102239.16;;;10.43;83.70
60852;BME280;48553;50.766;2.900;2022-11-11T06:57:15;102239.94;;;10.43;83.80
60852;BME280;48553;50.766;2.900;2022-11-11T07:00:15;102246.56;;;10.42;83.95
60852;BME280;48553;50.766;2.900;2022-11-11T07:03:18;102245.44;;;10.43;83.63
60852;BME280;48553;50.766;2.900;2022-11-11T07:06:19;102260.75;;;10.44;83.67
60852;BME280;48553;50.766;2.900;2022-11-11T07:09:20;102259.66;;;10.45;83.78
60852;BME280;48553;50.766;2.900;2022-11-11T07:12:22;102251.72;;;10.44;83.87
60852;BME280;48553;50.766;2.900;2022-11-11T07:15:23;102258.63;;;10.41;83.74
60852;BME280;48553;50.766;2.900;2022-11-11T07:18:23;102264.09;;;10.41;83.79
60852;BME280;48553;50.766;2.900;2022-11-11T07:21:24;102263.56;;;10.39;83.81
60852;BME280;48553;50.766;2.900;2022-11-11T07:24:24;102261.06;;;10.43;83.69
60852;BME280;48553;50.766;2.900;2022-11-11T07:27:25;102257.00;;;10.40;83.73
60852;BME280;48553;50.766;2.900;2022-11-11T07:30:25;102268.47;;;10.42;83.61
60852;BME280;48553;50.766;2.900;2022-11-11T07:33:26;102262.16;;;10.42;83.57
60852;BME280;48553;50.766;2.900;2022-11-11T07:36:26;102271.72;;;10.44;83.78
60852;BME280;48553;50.766;2.900;2022-11-11T07:39:26;102281.34;;;10.42;83.77
60852;BME280;48553;50.766;2.900;2022-11-11T07:42:27;102272.59;;;10.40;83.87
60852;BME280;48553;50.766;2.900;2022-11-11T07:45:27;102288.75;;;10.41;83.78
60852;BME280;48553;50.766;2.900;2022-11-11T07:48:28;102290.69;;;10.41;83.67
60852;BME280;48553;50.766;2.900;2022-11-11T07:51:28;102287.44;;;10.39;83.79
60852;BME280;48553;50.766;2.900;2022-11-11T07:54:28;102286.84;;;10.42;83.84
60852;BME280;48553;50.766;2.900;2022-11-11T07:57:29;102278.94;;;10.40;83.58
60852;BME280;48553;50.766;2.900;2022-11-11T08:00:29;102288.03;;;10.36;83.95
60852;BME280;48553;50.766;2.900;2022-11-11T08:03:30;102292.09;;;10.38;83.51
60852;BME280;48553;50.766;2.900;2022-11-11T08:06:30;102276.19;;;10.40;83.47
60852;BME280;48553;50.766;2.900;2022-11-11T08:09:30;102281.16;;;10.38;83.49
60852;BME280;48553;50.766;2.900;2022-11-11T08:12:31;102281.94;;;10.39;83.13
60852;BME280;48553;50.766;2.900;2022-11-11T08:15:50;102296.47;;;10.39;83.09
60852;BME280;48553;50.766;2.900;2022-11-11T08:18:50;102286.63;;;10.38;83.12
60852;BME280;48553;50.766;2.900;2022-11-11T08:21:52;102306.34;;;10.40;83.36
60852;BME280;48553;50.766;2.900;2022-11-11T08:24:53;102301.94;;;10.39;83.12
60852;BME280;48553;50.766;2.900;2022-11-11T08:28:01;102294.84;;;10.38;83.25
60852;BME280;48553;50.766;2.900;2022-11-11T08:31:01;102298.41;;;10.39;83.57
60852;BME280;48553;50.766;2.900;2022-11-11T08:34:02;102313.72;;;10.40;83.45
60852;BME280;48553;50.766;2.900;2022-11-11T08:37:02;102303.88;;;10.39;83.38
60852;BME280;48553;50.766;2.900;2022-11-11T08:40:03;102299.81;;;10.36;83.55
60852;BME280;48553;50.766;2.900;2022-11-11T08:43:04;102302.25;;;10.38;83.52
60852;BME280;48553;50.766;2.900;2022-11-11T08:46:04;102299.13;;;10.44;83.22
60852;BME280;48553;50.766;2.900;2022-11-11T08:49:05;102303.28;;;10.42;83.13
60852;BME280;48553;50.766;2.900;2022-11-11T08:52:05;102309.06;;;10.40;83.04
60852;BME280;48553;50.766;2.900;2022-11-11T08:55:05;102309.00;;;10.45;82.89
60852;BME280;48553;50.766;2.900;2022-11-11T08:58:06;102300.00;;;10.40;82.84
60852;BME280;48553;50.766;2.900;2022-11-11T09:01:11;102306.84;;;10.42;82.77
60852;BME280;48553;50.766;2.900;2022-11-11T09:04:12;102309.59;;;10.42;82.87
60852;BME280;48553;50.766;2.900;2022-11-11T09:07:13;102301.66;;;10.41;83.06
60852;BME280;48553;50.766;2.900;2022-11-11T09:10:13;102300.78;;;10.45;82.99
60852;BME280;48553;50.766;2.900;2022-11-11T09:13:13;102299.34;;;10.48;82.91
60852;BME280;48553;50.766;2.900;2022-11-11T09:16:14;102304.56;;;10.50;82.91
60852;BME280;48553;50.766;2.900;2022-11-11T09:19:14;102321.28;;;10.48;83.00
60852;BME280;48553;50.766;2.900;2022-11-11T09:22:15;102317.44;;;10.49;82.65
60852;BME280;48553;50.766;2.900;2022-11-11T09:25:15;102304.25;;;10.51;82.68
60852;BME280;48553;50.766;2.900;2022-11-11T09:28:16;102319.06;;;10.50;82.78
60852;BME280;48553;50.766;2.900;2022-11-11T09:31:16;102308.91;;;10.51;82.76
60852;BME280;48553;50.766;2.900;2022-11-11T09:34:17;102330.03;;;10.50;82.84
60852;BME280;48553;50.766;2.900;2022-11-11T09:37:17;102332.16;;;10.53;82.84
60852;BME280;48553;50.766;2.900;2022-11-11T09:40:20;102334.09;;;10.53;82.79
60852;BME280;48553;50.766;2.900;2022-11-11T09:49:31;102332.41;;;10.57;82.71
60852;BME280;48553;50.766;2.900;2022-11-11T09:56:07;102331.34;;;10.72;82.29
60852;BME280;48553;50.766;2.900;2022-11-11T09:59:34;102329.19;;;10.87;81.81
60852;BME280;48553;50.766;2.900;2022-11-11T10:03:05;102329.72;;;11.22;80.98
60852;BME280;48553;50.766;2.900;2022-11-11T10:06:28;102327.81;;;11.37;80.67
60852;BME280;48553;50.766;2.900;2022-11-11T10:09:43;102328.44;;;11.47;80.37
60852;BME280;48553;50.766;2.900;2022-11-11T10:12:50;102332.00;;;11.62;79.99
60852;BME280;48553;50.766;2.900;2022-11-11T10:19:33;102345.72;;;11.95;79.60
60852;BME280;48553;50.766;2.900;2022-11-11T10:22:39;102333.38;;;12.06;79.22
60852;BME280;48553;50.766;2.900;2022-11-11T10:25:50;102331.22;;;12.17;79.08
60852;BME280;48553;50.766;2.900;2022-11-11T10:28:52;102320.41;;;12.34;78.69
60852;BME280;48553;50.766;2.900;2022-11-11T10:32:13;102319.22;;;12.49;78.34
60852;BME280;48553;50.766;2.900;2022-11-11T10:35:27;102312.78;;;12.67;77.79
60852;BME280;48553;50.766;2.900;2022-11-11T10:38:41;102304.63;;;12.85;77.59
60852;BME280;48553;50.766;2.900;2022-11-11T10:41:49;102314.31;;;13.05;76.95
60852;BME280;48553;50.766;2.900;2022-11-11T10:44:56;102316.78;;;13.29;76.52
60852;BME280;48553;50.766;2.900;2022-11-11T10:51:02;102295.97;;;13.45;76.21
60852;BME280;48553;50.766;2.900;2022-11-11T10:54:14;102313.19;;;13.60;75.90
60852;BME280;48553;50.766;2.900;2022-11-11T10:57:27;102306.09;;;13.76;75.67
60852;BME280;48553;50.766;2.900;2022-11-11T11:00:31;102311.19;;;13.91;75.34
60852;BME280;48553;50.766;2.900;2022-11-11T11:03:39;102304.91;;;14.08;75.03
60852;BME280;48553;50.766;2.900;2022-11-11T11:06:43;102299.88;;;14.19;75.09
60852;BME280;48553;50.766;2.900;2022-11-11T11:09:55;102298.13;;;14.32;75.06
60852;BME280;48553;50.766;2.900;2022-11-11T11:16:07;102293.25;;;14.46;74.71
60852;BME280;48553;50.766;2.900;2022-11-11T11:22:17;102293.47;;;14.58;75.02
60852;BME280;48553;50.766;2.900;2022-11-11T11:25:20;102286.97;;;14.72;74.85
60852;BME280;48553;50.766;2.900;2022-11-11T11:28:21;102292.81;;;14.79;74.61
60852;BME280;48553;50.766;2.900;2022-11-11T11:31:39;102282.56;;;14.88;74.66
60852;BME280;48553;50.766;2.900;2022-11-11T11:34:43;102293.78;;;14.83;74.40
60852;BME280;48553;50.766;2.900;2022-11-11T11:37:49;102290.84;;;14.88;73.95
60852;BME280;48553;50.766;2.900;2022-11-11T11:40:52;102287.91;;;14.85;74.09
60852;BME280;48553;50.766;2.900;2022-11-11T11:43:52;102289.56;;;14.86;73.89
60852;BME280;48553;50.766;2.900;2022-11-11T11:47:45;102285.63;;;14.87;73.35
60852;BME280;48553;50.766;2.900;2022-11-11T11:50:29;102281.75;;;14.88;73.56
60852;BME280;48553;50.766;2.900;2022-11-11T11:56:41;102275.59;;;14.82;73.63
60852;BME280;48553;50.766;2.900;2022-11-11T11:59:51;102272.00;;;14.81;73.63
60852;BME280;48553;50.766;2.900;2022-11-11T12:03:12;102265.69;;;14.81;73.39
60852;BME280;48553;50.766;2.900;2022-11-11T12:16:53;102258.22;;;14.64;73.45
60852;BME280;48553;50.766;2.900;2022-11-11T12:20:24;102257.25;;;14.60;73.55
60852;BME280;48553;50.766;2.900;2022-11-11T12:27:03;102242.16;;;14.66;73.40
60852;BME280;48553;50.766;2.900;2022-11-11T12:30:22;102256.28;;;14.65;73.24
60852;BME280;48553;50.766;2.900;2022-11-11T12:50:13;102237.13;;;14.68;73.66
60852;BME280;48553;50.766;2.900;2022-11-11T13:02:58;102220.09;;;14.66;73.79
60852;BME280;48553;50.766;2.900;2022-11-11T13:15:57;102226.75;;;14.56;73.91
60852;BME280;48553;50.766;2.900;2022-11-11T13:19:18;102222.38;;;14.55;74.08
60852;BME280;48553;50.766;2.900;2022-11-11T13:22:26;102213.13;;;14.51;74.06
60852;BME280;48553;50.766;2.900;2022-11-11T13:25:29;102213.44;;;14.50;74.10
60852;BME280;48553;50.766;2.900;2022-11-11T13:28:42;102213.75;;;14.48;73.88
60852;BME280;48553;50.766;2.900;2022-11-11T13:31:47;102211.97;;;14.44;74.11
60852;BME280;48553;50.766;2.900;2022-11-11T13:34:50;102208.59;;;14.38;74.69
60852;BME280;48553;50.766;2.900;2022-11-11T13:37:52;102209.38;;;14.38;74.49
60852;BME280;48553;50.766;2.900;2022-11-11T13:40:54;102209.38;;;14.38;74.54
60852;BME280;48553;50.766;2.900;2022-11-11T13:43:58;102205.16;;;14.41;74.63
60852;BME280;48553;50.766;2.900;2022-11-11T13:47:06;102204.50;;;14.44;74.38
60852;BME280;48553;50.766;2.900;2022-11-11T13:50:25;102200.94;;;14.44;74.49
60852;BME280;48553;50.766;2.900;2022-11-11T13:53:31;102193.81;;;14.43;75.05
60852;BME280;48553;50.766;2.900;2022-11-11T13:56:40;102201.28;;;14.42;74.71
60852;BME280;48553;50.766;2.900;2022-11-11T13:59:58;102192.53;;;14.40;74.81
60852;BME280;48553;50.766;2.900;2022-11-11T14:09:52;102190.88;;;14.30;74.30
60852;BME280;48553;50.766;2.900;2022-11-11T14:12:55;102181.81;;;14.30;74.71
60852;BME280;48553;50.766;2.900;2022-11-11T14:15:56;102178.91;;;14.26;74.58
60852;BME280;48553;50.766;2.900;2022-11-11T14:18:56;102182.97;;;14.29;74.51
60852;BME280;48553;50.766;2.900;2022-11-11T14:22:01;102186.50;;;14.29;74.26
60852;BME280;48553;50.766;2.900;2022-11-11T14:25:18;102194.63;;;14.26;74.30
60852;BME280;48553;50.766;2.900;2022-11-11T14:28:26;102185.84;;;14.24;74.11
60852;BME280;48553;50.766;2.900;2022-11-11T14:31:45;102192.69;;;14.17;74.54
60852;BME280;48553;50.766;2.900;2022-11-11T14:35:28;102184.91;;;14.11;75.08
60852;BME280;48553;50.766;2.900;2022-11-11T14:41:49;102185.22;;;14.00;75.42
60852;BME280;48553;50.766;2.900;2022-11-11T14:44:50;102179.88;;;13.95;75.60
60852;BME280;48553;50.766;2.900;2022-11-11T14:47:50;102188.78;;;13.92;75.13
60852;BME280;48553;50.766;2.900;2022-11-11T14:50:51;102188.13;;;13.87;75.66
60852;BME280;48553;50.766;2.900;2022-11-11T14:53:52;102187.47;;;13.81;75.84
60852;BME280;48553;50.766;2.900;2022-11-11T14:57:00;102186.50;;;13.77;75.85
60852;BME280;48553;50.766;2.900;2022-11-11T15:09:37;102189.41;;;13.63;76.28
60852;BME280;48553;50.766;2.900;2022-11-11T15:19:18;102186.09;;;13.44;76.15
60852;BME280;48553;50.766;2.900;2022-11-11T15:22:40;102189.50;;;13.41;76.94
60852;BME280;48553;50.766;2.900;2022-11-11T15:25:51;102187.88;;;13.40;76.89
60852;BME280;48553;50.766;2.900;2022-11-11T15:32:35;102194.78;;;13.28;77.00
60852;BME280;48553;50.766;2.900;2022-11-11T15:38:58;102196.16;;;13.17;77.26
60852;BME280;48553;50.766;2.900;2022-11-11T15:42:02;102195.22;;;13.13;77.19
60852;BME280;48553;50.766;2.900;2022-11-11T15:45:20;102198.91;;;13.08;77.28
60852;BME280;48553;50.766;2.900;2022-11-11T15:48:33;102202.13;;;13.02;77.29
60852;BME280;48553;50.766;2.900;2022-11-11T15:51:35;102204.38;;;13.00;76.59
60852;BME280;48553;50.766;2.900;2022-11-11T15:54:37;102211.63;;;12.95;77.18
60852;BME280;48553;50.766;2.900;2022-11-11T15:57:38;102212.28;;;12.92;77.39
60852;BME280;48553;50.766;2.900;2022-11-11T16:00:39;102208.97;;;12.82;77.50
60852;BME280;48553;50.766;2.900;2022-11-11T16:03:42;102214.16;;;12.83;77.45
60852;BME280;48553;50.766;2.900;2022-11-11T16:06:43;102217.03;;;12.78;77.42
60852;BME280;48553;50.766;2.900;2022-11-11T16:09:44;102212.16;;;12.75;77.02
60852;BME280;48553;50.766;2.900;2022-11-11T16:15:59;102212.91;;;12.67;76.93
60852;BME280;48553;50.766;2.900;2022-11-11T16:22:38;102226.13;;;12.56;77.17
60852;BME280;48553;50.766;2.900;2022-11-11T16:25:39;102232.56;;;12.51;77.26
60852;BME280;48553;50.766;2.900;2022-11-11T16:28:48;102234.47;;;12.51;77.15
60852;BME280;48553;50.766;2.900;2022-11-11T16:31:50;102224.31;;;12.51;77.04
60852;BME280;48553;50.766;2.900;2022-11-11T16:34:52;102235.13;;;12.48;77.17
60852;BME280;48553;50.766;2.900;2022-11-11T16:37:53;102239.31;;;12.45;77.25
60852;BME280;48553;50.766;2.900;2022-11-11T16:40:54;102238.13;;;12.38;77.22
60852;BME280;48553;50.766;2.900;2022-11-11T16:43:55;102248.91;;;12.34;77.28
60852;BME280;48553;50.766;2.900;2022-11-11T16:46:57;102242.63;;;12.33;77.28
60852;BME280;48553;50.766;2.900;2022-11-11T16:53:26;102236.75;;;12.26;77.35
60852;BME280;48553;50.766;2.900;2022-11-11T16:56:34;102239.78;;;12.25;77.25
60852;BME280;48553;50.766;2.900;2022-11-11T16:59:42;102245.91;;;12.22;77.41
60852;BME280;48553;50.766;2.900;2022-11-11T17:02:44;102243.47;;;12.20;77.19
60852;BME280;48553;50.766;2.900;2022-11-11T17:05:49;102243.25;;;12.17;77.31
60852;BME280;48553;50.766;2.900;2022-11-11T17:08:50;102247.75;;;12.12;77.40
60852;BME280;48553;50.766;2.900;2022-11-11T17:11:51;102246.34;;;12.15;77.58
60852;BME280;48553;50.766;2.900;2022-11-11T17:14:53;102242.25;;;12.12;77.45
60852;BME280;48553;50.766;2.900;2022-11-11T17:17:53;102254.50;;;12.06;77.60
60852;BME280;48553;50.766;2.900;2022-11-11T17:20:53;102239.13;;;12.05;77.78
60852;BME280;48553;50.766;2.900;2022-11-11T17:23:55;102232.31;;;12.03;77.49
60852;BME280;48553;50.766;2.900;2022-11-11T17:26:56;102234.03;;;11.99;77.72
60852;BME280;48553;50.766;2.900;2022-11-11T17:29:56;102241.78;;;11.97;77.55
60852;BME280;48553;50.766;2.900;2022-11-11T17:32:57;102237.41;;;11.96;77.63
60852;BME280;48553;50.766;2.900;2022-11-11T17:35:57;102245.78;;;11.90;77.59
60852;BME280;48553;50.766;2.900;2022-11-11T17:39:00;102249.97;;;11.88;77.48
60852;BME280;48553;50.766;2.900;2022-11-11T17:42:01;102247.47;;;11.86;77.62
60852;BME280;48553;50.766;2.900;2022-11-11T17:45:02;102245.88;;;11.85;77.62
60852;BME280;48553;50.766;2.900;2022-11-11T17:48:03;102259.69;;;11.80;77.61
60852;BME280;48553;50.766;2.900;2022-11-11T17:51:04;102252.25;;;11.81;77.66
60852;BME280;48553;50.766;2.900;2022-11-11T17:54:08;102247.09;;;11.79;77.58
60852;BME280;48553;50.766;2.900;2022-11-11T17:57:11;102245.78;;;11.77;77.61
60852;BME280;48553;50.766;2.900;2022-11-11T18:00:12;102254.94;;;11.72;77.90
60852;BME280;48553;50.766;2.900;2022-11-11T18:03:12;102261.00;;;11.69;77.81
60852;BME280;48553;50.766;2.900;2022-11-11T18:06:13;102257.75;;;11.67;77.63
60852;BME280;48553;50.766;2.900;2022-11-11T18:09:13;102253.41;;;11.66;77.62
60852;BME280;48553;50.766;2.900;2022-11-11T18:12:14;102265.31;;;11.61;77.52